sensor_id;sensor_type;location;lat;lon;timestamp;P1;durP1;ratioP1;P2;durP2;ratioP2
54929;SDS011;40833;53.238;6.576;2023-04-24T00:00:10;5.53;;;5.00;;
54929;SDS011;40833;53.238;6.576;2023-04-24T00:02:43;6.53;;;5.23;;
54929;SDS011;40833;53.238;6.576;2023-04-24T00:05:16;6.07;;;5.17;;
54929;SDS011;40833;53.238;6.576;2023-04-24T00:07:42;5.93;;;5.33;;
54929;SDS011;40833;53.238;6.576;2023-04-24T00:10:09;10.87;;;6.80;;
54929;SDS011;40833;53.238;6.576;2023-04-24T00:12:36;7.03;;;6.33;;
54929;SDS011;40833;53.238;6.576;2023-04-24T00:15:02;7.50;;;6.80;;
54929;SDS011;40833;53.238;6.576;2023-04-24T00:17:28;8.13;;;7.13;;
54929;SDS011;40833;53.238;6.576;2023-04-24T00:19:53;8.77;;;7.43;;
54929;SDS011;40833;53.238;6.576;2023-04-24T00:22:26;7.87;;;7.03;;
54929;SDS011;40833;53.238;6.576;2023-04-24T00:24:53;8.70;;;6.30;;
54929;SDS011;40833;53.238;6.576;2023-04-24T00:27:19;7.47;;;5.50;;
54929;SDS011;40833;53.238;6.576;2023-04-24T00:29:46;6.43;;;5.53;;
54929;SDS011;40833;53.238;6.576;2023-04-24T00:32:12;7.27;;;5.33;;
54929;SDS011;40833;53.238;6.576;2023-04-24T00:34:38;5.37;;;4.87;;
54929;SDS011;40833;53.238;6.576;2023-04-24T00:37:04;8.27;;;6.57;;
54929;SDS011;40833;53.238;6.576;2023-04-24T00:39:31;8.30;;;5.70;;
54929;SDS011;40833;53.238;6.576;2023-04-24T00:41:57;6.50;;;5.80;;
54929;SDS011;40833;53.238;6.576;2023-04-24T00:44:24;3.70;;;3.50;;
54929;SDS011;40833;53.238;6.576;2023-04-24T00:46:50;2.70;;;2.50;;
54929;SDS011;40833;53.238;6.576;2023-04-24T00:49:19;2.27;;;2.10;;
54929;SDS011;40833;53.238;6.576;2023-04-24T00:51:48;1.40;;;1.30;;
54929;SDS011;40833;53.238;6.576;2023-04-24T00:54:16;1.57;;;1.10;;
54929;SDS011;40833;53.238;6.576;2023-04-24T00:56:42;0.90;;;0.63;;
54929;SDS011;40833;53.238;6.576;2023-04-24T00:59:09;2.40;;;0.83;;
54929;SDS011;40833;53.238;6.576;2023-04-24T01:01:36;2.47;;;0.87;;
54929;SDS011;40833;53.238;6.576;2023-04-24T01:04:02;0.70;;;0.60;;
54929;SDS011;40833;53.238;6.576;2023-04-24T01:06:28;0.80;;;0.37;;
54929;SDS011;40833;53.238;6.576;2023-04-24T01:08:56;0.60;;;0.50;;
54929;SDS011;40833;53.238;6.576;2023-04-24T01:11:22;0.73;;;0.53;;
54929;SDS011;40833;53.238;6.576;2023-04-24T01:13:48;0.60;;;0.60;;
54929;SDS011;40833;53.238;6.576;2023-04-24T01:16:15;0.87;;;0.53;;
54929;SDS011;40833;53.238;6.576;2023-04-24T01:18:42;0.83;;;0.37;;
54929;SDS011;40833;53.238;6.576;2023-04-24T01:21:08;0.40;;;0.40;;
54929;SDS011;40833;53.238;6.576;2023-04-24T01:23:36;0.30;;;0.30;;
54929;SDS011;40833;53.238;6.576;2023-04-24T01:26:02;1.37;;;0.30;;
54929;SDS011;40833;53.238;6.576;2023-04-24T01:28:28;0.83;;;0.23;;
54929;SDS011;40833;53.238;6.576;2023-04-24T01:30:54;0.77;;;0.57;;
54929;SDS011;40833;53.238;6.576;2023-04-24T01:33:20;0.40;;;0.40;;
54929;SDS011;40833;53.238;6.576;2023-04-24T01:35:47;0.87;;;0.47;;
54929;SDS011;40833;53.238;6.576;2023-04-24T01:38:13;1.83;;;0.53;;
54929;SDS011;40833;53.238;6.576;2023-04-24T01:40:39;0.63;;;0.63;;
54929;SDS011;40833;53.238;6.576;2023-04-24T01:43:05;1.13;;;0.50;;
54929;SDS011;40833;53.238;6.576;2023-04-24T01:45:31;0.73;;;0.67;;
54929;SDS011;40833;53.238;6.576;2023-04-24T01:47:58;0.67;;;0.67;;
54929;SDS011;40833;53.238;6.576;2023-04-24T01:50:25;1.57;;;0.57;;
54929;SDS011;40833;53.238;6.576;2023-04-24T01:52:51;1.80;;;0.80;;
54929;SDS011;40833;53.238;6.576;2023-04-24T01:55:17;0.90;;;0.90;;
54929;SDS011;40833;53.238;6.576;2023-04-24T01:57:43;0.90;;;0.90;;
54929;SDS011;40833;53.238;6.576;2023-04-24T02:00:09;1.07;;;1.07;;
54929;SDS011;40833;53.238;6.576;2023-04-24T02:02:37;1.20;;;1.00;;
54929;SDS011;40833;53.238;6.576;2023-04-24T02:05:05;1.30;;;1.30;;
54929;SDS011;40833;53.238;6.576;2023-04-24T02:07:32;1.40;;;1.40;;
54929;SDS011;40833;53.238;6.576;2023-04-24T02:09:58;1.60;;;1.50;;
54929;SDS011;40833;53.238;6.576;2023-04-24T02:12:23;1.43;;;1.33;;
54929;SDS011;40833;53.238;6.576;2023-04-24T02:14:49;1.27;;;1.27;;
54929;SDS011;40833;53.238;6.576;2023-04-24T02:17:15;1.70;;;1.70;;
54929;SDS011;40833;53.238;6.576;2023-04-24T02:19:41;2.00;;;1.90;;
54929;SDS011;40833;53.238;6.576;2023-04-24T02:22:07;2.13;;;2.10;;
54929;SDS011;40833;53.238;6.576;2023-04-24T02:24:33;2.30;;;2.20;;
54929;SDS011;40833;53.238;6.576;2023-04-24T02:26:59;2.20;;;2.20;;
54929;SDS011;40833;53.238;6.576;2023-04-24T02:29:25;3.00;;;2.90;;
54929;SDS011;40833;53.238;6.576;2023-04-24T02:31:50;3.87;;;3.50;;
54929;SDS011;40833;53.238;6.576;2023-04-24T02:34:16;3.10;;;2.90;;
54929;SDS011;40833;53.238;6.576;2023-04-24T02:36:42;3.50;;;3.23;;
54929;SDS011;40833;53.238;6.576;2023-04-24T02:39:07;3.13;;;2.93;;
54929;SDS011;40833;53.238;6.576;2023-04-24T02:41:33;4.10;;;3.90;;
54929;SDS011;40833;53.238;6.576;2023-04-24T02:43:59;3.70;;;3.60;;
54929;SDS011;40833;53.238;6.576;2023-04-24T02:46:25;3.77;;;3.57;;
54929;SDS011;40833;53.238;6.576;2023-04-24T02:48:51;4.10;;;3.90;;
54929;SDS011;40833;53.238;6.576;2023-04-24T02:51:17;4.40;;;4.13;;
54929;SDS011;40833;53.238;6.576;2023-04-24T02:53:42;6.37;;;4.20;;
54929;SDS011;40833;53.238;6.576;2023-04-24T02:56:08;4.67;;;4.37;;
54929;SDS011;40833;53.238;6.576;2023-04-24T02:58:37;4.47;;;4.20;;
54929;SDS011;40833;53.238;6.576;2023-04-24T03:01:03;4.97;;;4.47;;
54929;SDS011;40833;53.238;6.576;2023-04-24T03:03:28;4.53;;;4.23;;
54929;SDS011;40833;53.238;6.576;2023-04-24T03:05:54;4.70;;;4.40;;
54929;SDS011;40833;53.238;6.576;2023-04-24T03:08:20;5.00;;;4.70;;
54929;SDS011;40833;53.238;6.576;2023-04-24T03:10:46;5.30;;;4.80;;
54929;SDS011;40833;53.238;6.576;2023-04-24T03:13:11;4.90;;;4.60;;
54929;SDS011;40833;53.238;6.576;2023-04-24T03:15:37;5.33;;;4.93;;
54929;SDS011;40833;53.238;6.576;2023-04-24T03:18:03;6.00;;;5.50;;
54929;SDS011;40833;53.238;6.576;2023-04-24T03:20:29;5.97;;;5.47;;
54929;SDS011;40833;53.238;6.576;2023-04-24T03:22:54;6.63;;;6.13;;
54929;SDS011;40833;53.238;6.576;2023-04-24T03:25:21;5.87;;;5.37;;
54929;SDS011;40833;53.238;6.576;2023-04-24T03:27:47;6.73;;;6.13;;
54929;SDS011;40833;53.238;6.576;2023-04-24T03:30:12;6.17;;;5.70;;
54929;SDS011;40833;53.238;6.576;2023-04-24T03:32:38;7.37;;;6.87;;
54929;SDS011;40833;53.238;6.576;2023-04-24T03:35:05;7.33;;;6.73;;
54929;SDS011;40833;53.238;6.576;2023-04-24T03:37:32;7.30;;;6.63;;
54929;SDS011;40833;53.238;6.576;2023-04-24T03:39:58;8.17;;;7.43;;
54929;SDS011;40833;53.238;6.576;2023-04-24T03:42:23;8.53;;;7.80;;
54929;SDS011;40833;53.238;6.576;2023-04-24T03:44:49;8.40;;;7.67;;
54929;SDS011;40833;53.238;6.576;2023-04-24T03:47:15;9.30;;;8.40;;
54929;SDS011;40833;53.238;6.576;2023-04-24T03:49:40;8.40;;;7.60;;
54929;SDS011;40833;53.238;6.576;2023-04-24T03:52:06;9.80;;;8.97;;
54929;SDS011;40833;53.238;6.576;2023-04-24T03:54:32;11.53;;;9.40;;
54929;SDS011;40833;53.238;6.576;2023-04-24T03:56:58;12.07;;;10.70;;
54929;SDS011;40833;53.238;6.576;2023-04-24T03:59:23;10.93;;;10.03;;
54929;SDS011;40833;53.238;6.576;2023-04-24T04:01:49;12.50;;;11.20;;
54929;SDS011;40833;53.238;6.576;2023-04-24T04:04:15;12.57;;;11.33;;
54929;SDS011;40833;53.238;6.576;2023-04-24T04:06:40;11.63;;;10.53;;
54929;SDS011;40833;53.238;6.576;2023-04-24T04:09:07;18.43;;;12.73;;
54929;SDS011;40833;53.238;6.576;2023-04-24T04:11:33;14.30;;;13.00;;
54929;SDS011;40833;53.238;6.576;2023-04-24T04:14:00;13.63;;;12.17;;
54929;SDS011;40833;53.238;6.576;2023-04-24T04:16:26;13.00;;;11.90;;
54929;SDS011;40833;53.238;6.576;2023-04-24T04:18:52;12.80;;;11.60;;
54929;SDS011;40833;53.238;6.576;2023-04-24T04:21:18;13.67;;;12.33;;
54929;SDS011;40833;53.238;6.576;2023-04-24T04:23:43;14.07;;;12.57;;
54929;SDS011;40833;53.238;6.576;2023-04-24T04:26:09;12.43;;;11.23;;
54929;SDS011;40833;53.238;6.576;2023-04-24T04:28:36;12.87;;;11.57;;
54929;SDS011;40833;53.238;6.576;2023-04-24T04:31:02;16.00;;;11.67;;
54929;SDS011;40833;53.238;6.576;2023-04-24T04:33:28;12.50;;;11.40;;
54929;SDS011;40833;53.238;6.576;2023-04-24T04:35:54;13.70;;;12.30;;
54929;SDS011;40833;53.238;6.576;2023-04-24T04:38:21;11.37;;;10.37;;
54929;SDS011;40833;53.238;6.576;2023-04-24T04:40:47;11.40;;;10.27;;
54929;SDS011;40833;53.238;6.576;2023-04-24T04:43:13;12.80;;;10.50;;
54929;SDS011;40833;53.238;6.576;2023-04-24T04:45:42;11.33;;;9.83;;
54929;SDS011;40833;53.238;6.576;2023-04-24T04:48:08;10.90;;;9.90;;
54929;SDS011;40833;53.238;6.576;2023-04-24T04:50:37;11.73;;;10.53;;
54929;SDS011;40833;53.238;6.576;2023-04-24T04:53:02;14.83;;;13.23;;
54929;SDS011;40833;53.238;6.576;2023-04-24T04:55:28;11.73;;;10.37;;
54929;SDS011;40833;53.238;6.576;2023-04-24T04:57:55;11.70;;;10.43;;
54929;SDS011;40833;53.238;6.576;2023-04-24T05:00:21;12.93;;;11.63;;
54929;SDS011;40833;53.238;6.576;2023-04-24T05:02:50;11.97;;;10.67;;
54929;SDS011;40833;53.238;6.576;2023-04-24T05:05:16;12.60;;;10.63;;
54929;SDS011;40833;53.238;6.576;2023-04-24T05:07:42;8.30;;;7.60;;
54929;SDS011;40833;53.238;6.576;2023-04-24T05:10:08;6.83;;;6.13;;
54929;SDS011;40833;53.238;6.576;2023-04-24T05:12:34;5.90;;;5.30;;
54929;SDS011;40833;53.238;6.576;2023-04-24T05:15:00;6.73;;;5.00;;
54929;SDS011;40833;53.238;6.576;2023-04-24T05:17:29;6.03;;;4.80;;
54929;SDS011;40833;53.238;6.576;2023-04-24T05:19:54;7.50;;;5.17;;
54929;SDS011;40833;53.238;6.576;2023-04-24T05:22:20;8.10;;;5.90;;
54929;SDS011;40833;53.238;6.576;2023-04-24T05:24:46;7.13;;;5.80;;
54929;SDS011;40833;53.238;6.576;2023-04-24T05:27:13;9.53;;;5.53;;
54929;SDS011;40833;53.238;6.576;2023-04-24T05:29:38;8.27;;;5.13;;
54929;SDS011;40833;53.238;6.576;2023-04-24T05:32:08;5.33;;;4.43;;
54929;SDS011;40833;53.238;6.576;2023-04-24T05:34:36;6.33;;;4.80;;
54929;SDS011;40833;53.238;6.576;2023-04-24T05:37:02;7.77;;;4.97;;
54929;SDS011;40833;53.238;6.576;2023-04-24T05:39:28;11.27;;;5.23;;
54929;SDS011;40833;53.238;6.576;2023-04-24T05:41:54;5.37;;;4.50;;
54929;SDS011;40833;53.238;6.576;2023-04-24T05:44:23;7.63;;;3.87;;
54929;SDS011;40833;53.238;6.576;2023-04-24T05:46:48;7.67;;;4.30;;
54929;SDS011;40833;53.238;6.576;2023-04-24T05:49:14;8.03;;;4.67;;
54929;SDS011;40833;53.238;6.576;2023-04-24T05:51:39;12.10;;;4.97;;
54929;SDS011;40833;53.238;6.576;2023-04-24T05:54:06;9.23;;;5.10;;
54929;SDS011;40833;53.238;6.576;2023-04-24T05:56:32;5.23;;;4.00;;
54929;SDS011;40833;53.238;6.576;2023-04-24T05:58:58;6.53;;;4.63;;
54929;SDS011;40833;53.238;6.576;2023-04-24T06:01:24;7.23;;;4.43;;
54929;SDS011;40833;53.238;6.576;2023-04-24T06:03:50;10.07;;;4.90;;
54929;SDS011;40833;53.238;6.576;2023-04-24T06:06:16;10.60;;;4.97;;
54929;SDS011;40833;53.238;6.576;2023-04-24T06:08:41;8.47;;;5.23;;
54929;SDS011;40833;53.238;6.576;2023-04-24T06:11:09;7.00;;;5.13;;
54929;SDS011;40833;53.238;6.576;2023-04-24T06:13:34;10.57;;;5.07;;
54929;SDS011;40833;53.238;6.576;2023-04-24T06:16:00;8.87;;;5.73;;
54929;SDS011;40833;53.238;6.576;2023-04-24T06:18:26;8.63;;;4.90;;
54929;SDS011;40833;53.238;6.576;2023-04-24T06:20:52;6.60;;;5.17;;
54929;SDS011;40833;53.238;6.576;2023-04-24T06:23:18;8.80;;;5.93;;
54929;SDS011;40833;53.238;6.576;2023-04-24T06:25:43;11.73;;;7.37;;
54929;SDS011;40833;53.238;6.576;2023-04-24T06:28:09;13.77;;;7.40;;
54929;SDS011;40833;53.238;6.576;2023-04-24T06:30:35;11.73;;;7.17;;
54929;SDS011;40833;53.238;6.576;2023-04-24T06:33:00;8.70;;;6.23;;
54929;SDS011;40833;53.238;6.576;2023-04-24T06:35:26;6.83;;;5.63;;
54929;SDS011;40833;53.238;6.576;2023-04-24T06:37:55;8.63;;;5.43;;
54929;SDS011;40833;53.238;6.576;2023-04-24T06:40:21;11.50;;;4.83;;
54929;SDS011;40833;53.238;6.576;2023-04-24T06:42:47;7.27;;;5.40;;
54929;SDS011;40833;53.238;6.576;2023-04-24T06:45:13;8.83;;;5.83;;
54929;SDS011;40833;53.238;6.576;2023-04-24T06:47:39;9.77;;;6.60;;
54929;SDS011;40833;53.238;6.576;2023-04-24T06:50:04;17.03;;;6.17;;
54929;SDS011;40833;53.238;6.576;2023-04-24T06:52:31;9.10;;;5.20;;
54929;SDS011;40833;53.238;6.576;2023-04-24T06:55:00;10.77;;;5.17;;
54929;SDS011;40833;53.238;6.576;2023-04-24T06:57:28;5.67;;;3.37;;
54929;SDS011;40833;53.238;6.576;2023-04-24T06:59:54;4.67;;;2.33;;
54929;SDS011;40833;53.238;6.576;2023-04-24T07:02:19;2.90;;;2.37;;
54929;SDS011;40833;53.238;6.576;2023-04-24T07:04:45;4.03;;;2.10;;
54929;SDS011;40833;53.238;6.576;2023-04-24T07:07:13;6.53;;;2.33;;
54929;SDS011;40833;53.238;6.576;2023-04-24T07:09:42;7.33;;;2.47;;
54929;SDS011;40833;53.238;6.576;2023-04-24T07:12:09;5.20;;;2.20;;
54929;SDS011;40833;53.238;6.576;2023-04-24T07:14:38;5.10;;;1.70;;
54929;SDS011;40833;53.238;6.576;2023-04-24T07:17:05;5.30;;;1.67;;
54929;SDS011;40833;53.238;6.576;2023-04-24T07:19:31;3.57;;;1.23;;
54929;SDS011;40833;53.238;6.576;2023-04-24T07:21:58;6.33;;;1.83;;
54929;SDS011;40833;53.238;6.576;2023-04-24T07:24:25;3.73;;;2.07;;
54929;SDS011;40833;53.238;6.576;2023-04-24T07:26:50;8.20;;;1.53;;
54929;SDS011;40833;53.238;6.576;2023-04-24T07:29:17;6.10;;;1.70;;
54929;SDS011;40833;53.238;6.576;2023-04-24T07:31:43;4.20;;;1.30;;
54929;SDS011;40833;53.238;6.576;2023-04-24T07:34:09;4.03;;;1.40;;
54929;SDS011;40833;53.238;6.576;2023-04-24T07:36:35;5.93;;;1.60;;
54929;SDS011;40833;53.238;6.576;2023-04-24T07:39:03;5.17;;;1.97;;
54929;SDS011;40833;53.238;6.576;2023-04-24T07:41:33;7.83;;;2.20;;
54929;SDS011;40833;53.238;6.576;2023-04-24T07:43:58;7.67;;;2.37;;
54929;SDS011;40833;53.238;6.576;2023-04-24T07:46:24;9.57;;;2.57;;
54929;SDS011;40833;53.238;6.576;2023-04-24T07:48:50;6.30;;;2.10;;
54929;SDS011;40833;53.238;6.576;2023-04-24T07:51:17;5.00;;;1.10;;
54929;SDS011;40833;53.238;6.576;2023-04-24T07:53:43;6.57;;;2.03;;
54929;SDS011;40833;53.238;6.576;2023-04-24T07:56:08;3.87;;;2.10;;
54929;SDS011;40833;53.238;6.576;2023-04-24T07:58:34;9.10;;;2.83;;
54929;SDS011;40833;53.238;6.576;2023-04-24T08:01:00;10.77;;;4.03;;
54929;SDS011;40833;53.238;6.576;2023-04-24T08:03:26;5.03;;;4.20;;
54929;SDS011;40833;53.238;6.576;2023-04-24T08:05:52;8.13;;;4.67;;
54929;SDS011;40833;53.238;6.576;2023-04-24T08:08:19;10.53;;;7.00;;
54929;SDS011;40833;53.238;6.576;2023-04-24T08:10:46;14.47;;;7.73;;
54929;SDS011;40833;53.238;6.576;2023-04-24T08:13:12;18.87;;;8.97;;
54929;SDS011;40833;53.238;6.576;2023-04-24T08:15:38;15.50;;;8.67;;
54929;SDS011;40833;53.238;6.576;2023-04-24T08:18:04;25.30;;;13.07;;
54929;SDS011;40833;53.238;6.576;2023-04-24T08:20:29;28.67;;;13.50;;
54929;SDS011;40833;53.238;6.576;2023-04-24T08:22:55;23.40;;;13.47;;
54929;SDS011;40833;53.238;6.576;2023-04-24T08:25:21;21.03;;;12.37;;
54929;SDS011;40833;53.238;6.576;2023-04-24T08:27:49;27.63;;;14.73;;
54929;SDS011;40833;53.238;6.576;2023-04-24T08:30:15;25.83;;;13.70;;
54929;SDS011;40833;53.238;6.576;2023-04-24T08:32:42;23.10;;;13.00;;
54929;SDS011;40833;53.238;6.576;2023-04-24T08:35:07;25.93;;;13.70;;
54929;SDS011;40833;53.238;6.576;2023-04-24T08:37:36;26.10;;;12.40;;
54929;SDS011;40833;53.238;6.576;2023-04-24T08:40:06;21.17;;;14.00;;
54929;SDS011;40833;53.238;6.576;2023-04-24T08:42:41;22.33;;;11.10;;
54929;SDS011;40833;53.238;6.576;2023-04-24T08:45:08;21.90;;;11.53;;
54929;SDS011;40833;53.238;6.576;2023-04-24T08:47:35;28.30;;;11.00;;
54929;SDS011;40833;53.238;6.576;2023-04-24T08:50:03;27.83;;;11.53;;
54929;SDS011;40833;53.238;6.576;2023-04-24T08:52:32;29.30;;;12.80;;
54929;SDS011;40833;53.238;6.576;2023-04-24T08:54:58;23.17;;;11.63;;
54929;SDS011;40833;53.238;6.576;2023-04-24T08:57:26;21.23;;;11.30;;
54929;SDS011;40833;53.238;6.576;2023-04-24T08:59:52;22.40;;;11.20;;
54929;SDS011;40833;53.238;6.576;2023-04-24T09:02:19;18.00;;;10.00;;
54929;SDS011;40833;53.238;6.576;2023-04-24T09:04:47;14.03;;;9.63;;
54929;SDS011;40833;53.238;6.576;2023-04-24T09:07:14;17.07;;;10.17;;
54929;SDS011;40833;53.238;6.576;2023-04-24T09:09:42;21.87;;;10.93;;
54929;SDS011;40833;53.238;6.576;2023-04-24T09:12:08;21.40;;;13.60;;
54929;SDS011;40833;53.238;6.576;2023-04-24T09:14:35;14.17;;;10.63;;
54929;SDS011;40833;53.238;6.576;2023-04-24T09:17:04;15.23;;;11.00;;
54929;SDS011;40833;53.238;6.576;2023-04-24T09:19:31;23.50;;;11.60;;
54929;SDS011;40833;53.238;6.576;2023-04-24T09:21:57;22.07;;;10.67;;
54929;SDS011;40833;53.238;6.576;2023-04-24T09:24:22;17.07;;;10.57;;
54929;SDS011;40833;53.238;6.576;2023-04-24T09:26:49;16.00;;;10.27;;
54929;SDS011;40833;53.238;6.576;2023-04-24T09:29:28;24.03;;;8.10;;
54929;SDS011;40833;53.238;6.576;2023-04-24T09:31:55;19.03;;;7.90;;
54929;SDS011;40833;53.238;6.576;2023-04-24T09:34:24;17.67;;;6.50;;
54929;SDS011;40833;53.238;6.576;2023-04-24T09:36:51;12.13;;;6.47;;
54929;SDS011;40833;53.238;6.576;2023-04-24T09:39:18;21.23;;;8.13;;
54929;SDS011;40833;53.238;6.576;2023-04-24T09:41:47;10.67;;;6.43;;
54929;SDS011;40833;53.238;6.576;2023-04-24T09:44:16;12.77;;;6.53;;
54929;SDS011;40833;53.238;6.576;2023-04-24T09:46:44;22.37;;;7.27;;
54929;SDS011;40833;53.238;6.576;2023-04-24T09:49:14;18.50;;;6.97;;
54929;SDS011;40833;53.238;6.576;2023-04-24T09:51:44;20.33;;;6.40;;
54929;SDS011;40833;53.238;6.576;2023-04-24T09:54:17;16.67;;;6.57;;
54929;SDS011;40833;53.238;6.576;2023-04-24T09:56:46;22.03;;;7.43;;
54929;SDS011;40833;53.238;6.576;2023-04-24T09:59:16;15.23;;;5.60;;
54929;SDS011;40833;53.238;6.576;2023-04-24T10:01:49;18.43;;;3.93;;
54929;SDS011;40833;53.238;6.576;2023-04-24T10:04:18;15.27;;;4.47;;
54929;SDS011;40833;53.238;6.576;2023-04-24T10:06:46;11.10;;;3.63;;
54929;SDS011;40833;53.238;6.576;2023-04-24T10:09:14;7.23;;;3.63;;
54929;SDS011;40833;53.238;6.576;2023-04-24T10:11:41;12.50;;;3.50;;
54929;SDS011;40833;53.238;6.576;2023-04-24T10:14:09;12.37;;;3.63;;
54929;SDS011;40833;53.238;6.576;2023-04-24T10:16:39;12.10;;;2.80;;
54929;SDS011;40833;53.238;6.576;2023-04-24T10:19:05;11.27;;;3.40;;
54929;SDS011;40833;53.238;6.576;2023-04-24T10:21:32;9.13;;;2.70;;
54929;SDS011;40833;53.238;6.576;2023-04-24T10:23:59;8.83;;;2.97;;
54929;SDS011;40833;53.238;6.576;2023-04-24T10:26:28;8.53;;;2.30;;
54929;SDS011;40833;53.238;6.576;2023-04-24T10:28:54;11.37;;;2.20;;
54929;SDS011;40833;53.238;6.576;2023-04-24T10:31:23;6.73;;;1.80;;
54929;SDS011;40833;53.238;6.576;2023-04-24T10:33:50;11.47;;;2.20;;
54929;SDS011;40833;53.238;6.576;2023-04-24T10:36:17;6.27;;;2.20;;
54929;SDS011;40833;53.238;6.576;2023-04-24T10:38:43;10.17;;;2.50;;
54929;SDS011;40833;53.238;6.576;2023-04-24T10:41:12;11.37;;;2.67;;
54929;SDS011;40833;53.238;6.576;2023-04-24T10:43:44;6.47;;;2.37;;
54929;SDS011;40833;53.238;6.576;2023-04-24T10:46:11;9.93;;;1.87;;
54929;SDS011;40833;53.238;6.576;2023-04-24T10:48:51;9.87;;;2.13;;
54929;SDS011;40833;53.238;6.576;2023-04-24T10:51:22;10.13;;;1.50;;
54929;SDS011;40833;53.238;6.576;2023-04-24T10:53:51;9.87;;;2.20;;
54929;SDS011;40833;53.238;6.576;2023-04-24T10:56:17;7.90;;;1.33;;
54929;SDS011;40833;53.238;6.576;2023-04-24T10:58:50;6.23;;;1.83;;
54929;SDS011;40833;53.238;6.576;2023-04-24T11:01:30;11.43;;;1.77;;
54929;SDS011;40833;53.238;6.576;2023-04-24T11:04:01;7.23;;;1.27;;
54929;SDS011;40833;53.238;6.576;2023-04-24T11:06:29;8.80;;;1.63;;
54929;SDS011;40833;53.238;6.576;2023-04-24T11:09:09;7.47;;;1.77;;
54929;SDS011;40833;53.238;6.576;2023-04-24T11:11:43;9.90;;;1.83;;
54929;SDS011;40833;53.238;6.576;2023-04-24T11:14:10;10.38;;;1.58;;
54929;SDS011;40833;53.238;6.576;2023-04-24T11:16:53;8.70;;;1.60;;
54929;SDS011;40833;53.238;6.576;2023-04-24T11:19:26;6.70;;;1.43;;
54929;SDS011;40833;53.238;6.576;2023-04-24T11:22:13;10.70;;;1.53;;
54929;SDS011;40833;53.238;6.576;2023-04-24T11:24:48;11.07;;;2.20;;
54929;SDS011;40833;53.238;6.576;2023-04-24T11:27:16;6.83;;;1.50;;
54929;SDS011;40833;53.238;6.576;2023-04-24T11:29:45;10.37;;;1.37;;
54929;SDS011;40833;53.238;6.576;2023-04-24T11:35:17;8.07;;;1.30;;
54929;SDS011;40833;53.238;6.576;2023-04-24T11:37:48;9.85;;;1.10;;
54929;SDS011;40833;53.238;6.576;2023-04-24T11:40:16;11.53;;;1.57;;
54929;SDS011;40833;53.238;6.576;2023-04-24T11:42:49;8.53;;;1.07;;
54929;SDS011;40833;53.238;6.576;2023-04-24T11:45:26;7.55;;;1.00;;
54929;SDS011;40833;53.238;6.576;2023-04-24T11:47:53;6.90;;;1.13;;
54929;SDS011;40833;53.238;6.576;2023-04-24T11:50:25;11.90;;;1.40;;
54929;SDS011;40833;53.238;6.576;2023-04-24T11:52:52;8.23;;;0.73;;
54929;SDS011;40833;53.238;6.576;2023-04-24T11:57:45;5.20;;;1.03;;
54929;SDS011;40833;53.238;6.576;2023-04-24T12:00:17;7.23;;;1.03;;
54929;SDS011;40833;53.238;6.576;2023-04-24T12:02:44;4.87;;;0.80;;
54929;SDS011;40833;53.238;6.576;2023-04-24T12:05:23;3.90;;;0.80;;
54929;SDS011;40833;53.238;6.576;2023-04-24T12:07:53;9.50;;;1.40;;
54929;SDS011;40833;53.238;6.576;2023-04-24T12:10:22;10.10;;;1.50;;
54929;SDS011;40833;53.238;6.576;2023-04-24T12:12:49;11.07;;;1.10;;
54929;SDS011;40833;53.238;6.576;2023-04-24T12:15:17;7.67;;;0.93;;
54929;SDS011;40833;53.238;6.576;2023-04-24T12:17:43;4.27;;;0.77;;
54929;SDS011;40833;53.238;6.576;2023-04-24T12:20:09;5.10;;;0.80;;
54929;SDS011;40833;53.238;6.576;2023-04-24T12:25:11;4.67;;;0.80;;
54929;SDS011;40833;53.238;6.576;2023-04-24T12:27:37;6.07;;;0.47;;
54929;SDS011;40833;53.238;6.576;2023-04-24T12:30:04;8.60;;;0.83;;
54929;SDS011;40833;53.238;6.576;2023-04-24T12:32:31;8.07;;;1.03;;
54929;SDS011;40833;53.238;6.576;2023-04-24T12:34:57;4.17;;;0.53;;
54929;SDS011;40833;53.238;6.576;2023-04-24T12:37:24;6.13;;;1.60;;
54929;SDS011;40833;53.238;6.576;2023-04-24T12:42:32;3.03;;;0.40;;
54929;SDS011;40833;53.238;6.576;2023-04-24T12:45:00;2.67;;;0.30;;
54929;SDS011;40833;53.238;6.576;2023-04-24T12:47:30;4.00;;;0.28;;
54929;SDS011;40833;53.238;6.576;2023-04-24T12:49:57;4.43;;;0.23;;
54929;SDS011;40833;53.238;6.576;2023-04-24T12:52:23;3.80;;;0.60;;
54929;SDS011;40833;53.238;6.576;2023-04-24T12:54:51;5.90;;;0.30;;
54929;SDS011;40833;53.238;6.576;2023-04-24T12:57:18;4.30;;;0.33;;
54929;SDS011;40833;53.238;6.576;2023-04-24T12:59:44;6.57;;;0.40;;
54929;SDS011;40833;53.238;6.576;2023-04-24T13:02:10;3.30;;;0.30;;
54929;SDS011;40833;53.238;6.576;2023-04-24T13:04:36;5.33;;;0.90;;
54929;SDS011;40833;53.238;6.576;2023-04-24T13:07:02;7.63;;;0.70;;
54929;SDS011;40833;53.238;6.576;2023-04-24T13:09:28;4.97;;;0.80;;
54929;SDS011;40833;53.238;6.576;2023-04-24T13:11:54;7.93;;;0.43;;
54929;SDS011;40833;53.238;6.576;2023-04-24T13:14:21;4.97;;;0.40;;
54929;SDS011;40833;53.238;6.576;2023-04-24T13:16:47;10.37;;;0.60;;
54929;SDS011;40833;53.238;6.576;2023-04-24T13:19:13;3.13;;;0.50;;
54929;SDS011;40833;53.238;6.576;2023-04-24T13:21:39;15.20;;;1.07;;
54929;SDS011;40833;53.238;6.576;2023-04-24T13:24:04;6.13;;;0.20;;
54929;SDS011;40833;53.238;6.576;2023-04-24T13:26:32;3.67;;;0.40;;
54929;SDS011;40833;53.238;6.576;2023-04-24T13:28:58;4.63;;;0.30;;
54929;SDS011;40833;53.238;6.576;2023-04-24T13:31:24;2.83;;;0.30;;
54929;SDS011;40833;53.238;6.576;2023-04-24T13:33:50;4.17;;;0.30;;
54929;SDS011;40833;53.238;6.576;2023-04-24T13:36:16;3.87;;;0.47;;
54929;SDS011;40833;53.238;6.576;2023-04-24T13:38:43;5.03;;;0.87;;
54929;SDS011;40833;53.238;6.576;2023-04-24T13:41:09;3.70;;;0.30;;
54929;SDS011;40833;53.238;6.576;2023-04-24T13:43:35;6.23;;;0.47;;
54929;SDS011;40833;53.238;6.576;2023-04-24T13:46:01;8.83;;;0.53;;
54929;SDS011;40833;53.238;6.576;2023-04-24T13:48:28;2.13;;;0.10;;
54929;SDS011;40833;53.238;6.576;2023-04-24T13:50:54;1.70;;;0.10;;
54929;SDS011;40833;53.238;6.576;2023-04-24T13:53:20;3.70;;;0.20;;
54929;SDS011;40833;53.238;6.576;2023-04-24T13:55:46;3.07;;;0.30;;
54929;SDS011;40833;53.238;6.576;2023-04-24T13:58:12;3.97;;;0.30;;
54929;SDS011;40833;53.238;6.576;2023-04-24T14:00:37;3.43;;;0.20;;
54929;SDS011;40833;53.238;6.576;2023-04-24T14:03:06;3.40;;;0.60;;
54929;SDS011;40833;53.238;6.576;2023-04-24T14:05:32;4.27;;;0.50;;
54929;SDS011;40833;53.238;6.576;2023-04-24T14:07:58;5.23;;;0.70;;
54929;SDS011;40833;53.238;6.576;2023-04-24T14:10:24;8.17;;;1.10;;
54929;SDS011;40833;53.238;6.576;2023-04-24T14:12:50;9.67;;;1.67;;
54929;SDS011;40833;53.238;6.576;2023-04-24T14:15:16;8.37;;;1.10;;
54929;SDS011;40833;53.238;6.576;2023-04-24T14:17:42;7.47;;;1.57;;
54929;SDS011;40833;53.238;6.576;2023-04-24T14:20:08;5.60;;;1.10;;
54929;SDS011;40833;53.238;6.576;2023-04-24T14:22:34;8.43;;;0.90;;
54929;SDS011;40833;53.238;6.576;2023-04-24T14:25:00;9.57;;;1.10;;
54929;SDS011;40833;53.238;6.576;2023-04-24T14:27:26;5.00;;;0.90;;
54929;SDS011;40833;53.238;6.576;2023-04-24T14:29:52;8.87;;;2.03;;
54929;SDS011;40833;53.238;6.576;2023-04-24T14:32:18;6.53;;;0.80;;
54929;SDS011;40833;53.238;6.576;2023-04-24T14:34:44;9.27;;;1.80;;
54929;SDS011;40833;53.238;6.576;2023-04-24T14:37:10;11.77;;;2.43;;
54929;SDS011;40833;53.238;6.576;2023-04-24T14:39:35;11.10;;;1.40;;
54929;SDS011;40833;53.238;6.576;2023-04-24T14:42:01;6.00;;;1.00;;
54929;SDS011;40833;53.238;6.576;2023-04-24T14:44:27;9.43;;;1.37;;
54929;SDS011;40833;53.238;6.576;2023-04-24T14:46:52;7.70;;;2.03;;
54929;SDS011;40833;53.238;6.576;2023-04-24T14:49:18;7.87;;;1.37;;